Impacts METAR Board
IDs:

KEWR - Newark Intl, NJ, US

Updated at: 0000 UTC 27 Apr 2018
Potential Impact None Slight Moderate High
Time 26/12Z 26/13Z 26/14Z 26/15Z 26/16Z 26/17Z 26/18Z 26/19Z 26/20Z 26/21Z 26/22Z 26/23Z 27/00Z
Temp58 57 59 61 64 65 67 69 69 69 69 69 66
Dewpt49 42 42 42 42 41 41 41 42 43 43 42 42
Altim29.69 29.71 29.73 29.75 29.74 29.74 29.74 29.75 29.75 29.76 29.78 29.79 29.82
VIS10 10 10 10 10 10 10 10 10 10 10 10 10
CIG-- -- -- -- -- -- -- 250 -- -- -- 250 --
CoverSCTSCTFEWSCTSCTSCTSCTBKNSCTSCTSCTBKNSCT
FltCatVFRVFRVFRVFRVFRVFRVFRVFRVFRVFRVFRVFRVFR
WX--------------------------
WDir290300280300280300270260260240280250240
WSpd15 18 14 14 16 12 11 18 16 11 11 11 10
WGst18 23 -- -- -- -- 22 26 19 17 19 -- --
Raw hourly METARs
KEWR 261151Z 29015G18KT 10SM FEW035 FEW065 SCT250 14/09 A2969 RMK AO2 SLP053 60000 70050 T01440094 10144 20128 51027
KEWR 261251Z 30018G23KT 10SM FEW031 SCT060 SCT250 14/06 A2971 RMK AO2 SLP060 T01390056
KEWR 261351Z 28014KT 10SM FEW030 FEW065 FEW250 15/06 A2973 RMK AO2 SLP067 T01500056
KEWR 261451Z 30014KT 10SM FEW030 FEW065 SCT250 16/06 A2975 RMK AO2 SLP073 T01610056 52020
KEWR 261551Z 28016KT 10SM FEW040 SCT250 18/06 A2974 RMK AO2 SLP071 T01780056
KEWR 261651Z 30012KT 10SM FEW045 SCT250 18/05 A2974 RMK AO2 SLP071 T01830050
KEWR 261751Z 27011G22KT 10SM FEW055 SCT250 19/05 A2974 RMK AO2 SLP070 T01940050 10200 20133 56003
KEWR 261851Z 26018G26KT 10SM SCT055 BKN250 21/05 A2975 RMK AO2 PK WND 27033/1811 SLP073 T02060050
KEWR 261951Z 26016G19KT 10SM FEW055 SCT250 21/06 A2975 RMK AO2 SLP074 T02060056
KEWR 262051Z 24011G17KT 10SM FEW055 SCT250 21/06 A2976 RMK AO2 SLP078 T02060061 53008
KEWR 262151Z 28011G19KT 10SM FEW055 SCT250 21/06 A2978 RMK AO2 SLP083 T02060061
KEWR 262251Z 25011KT 10SM FEW060 BKN250 21/06 A2979 RMK AO2 SLP086 T02060056
KEWR 262351Z 24010KT 10SM FEW060 SCT250 19/06 A2982 RMK AO2 SLP097 T01890056 10211 20189 53019



Page loaded:  00:38 UTC  |   05:38 PM Pacific  |   06:38 PM Mountain  |   07:38 PM Central  |   08:38 PM Eastern

 

ADVISORIES

FORECASTS

FORECASTS

OBSERVATIONS

USER TOOLS

ABOUT US